Time;durP1;ratioP1;P1;durP2;ratioP2;P2;SDS_P1;SDS_P2;PMS_P1;PMS_P2;Temp;Humidity;BMP_temperature;BMP_pressure;BME280_temperature;BME280_humidity;BME280_pressure;Samples;Min_cycle;Max_cycle;Signal;HPM_P1;HPM_P2
2023/03/11 00:00:27;;;;;;;15.25;11.05;;;-0.40;99.90;;;;;;5045313;28;20025;-60
2023/03/11 00:02:55;;;;;;;13.73;10.13;;;-0.40;99.90;;;;;;5045181;28;20029;-59
2023/03/11 00:05:27;;;;;;;16.80;11.15;;;-0.40;99.90;;;;;;5044687;28;20025;-60
2023/03/11 00:07:53;;;;;;;17.80;11.48;;;-0.30;99.90;;;;;;5048803;28;20078;-59
2023/03/11 00:10:21;;;;;;;16.13;11.90;;;-0.30;99.90;;;;;;5039475;28;20099;-59
2023/03/11 00:12:47;;;;;;;18.55;12.02;;;-0.30;99.90;;;;;;5048257;28;20442;-58
2023/03/11 00:15:13;;;;;;;17.48;11.80;;;-0.30;99.90;;;;;;5048733;28;20025;-59
2023/03/11 00:17:39;;;;;;;15.02;11.90;;;-0.30;99.90;;;;;;5048578;28;20493;-59
2023/03/11 00:20:06;;;;;;;15.90;11.65;;;-0.20;99.90;;;;;;5048721;28;20384;-60
2023/03/11 00:22:32;;;;;;;15.13;11.32;;;-0.20;99.90;;;;;;5048760;28;20033;-56
2023/03/11 00:24:58;;;;;;;15.98;11.75;;;-0.30;99.90;;;;;;5048753;28;20566;-58
2023/03/11 00:27:23;;;;;;;18.88;12.95;;;-0.30;99.90;;;;;;5048654;28;20025;-60
2023/03/11 00:29:49;;;;;;;16.70;12.63;;;-0.30;99.90;;;;;;5048423;28;20067;-59
2023/03/11 00:32:15;;;;;;;20.98;14.15;;;-0.30;99.90;;;;;;5048932;28;20530;-57
2023/03/11 00:34:40;;;;;;;18.55;13.05;;;-0.30;99.90;;;;;;5045659;28;20515;-53
2023/03/11 00:37:06;;;;;;;17.42;13.02;;;-0.30;99.90;;;;;;5041058;28;20029;-57
2023/03/11 00:39:32;;;;;;;18.23;12.98;;;-0.30;99.90;;;;;;5046071;28;20028;-56
2023/03/11 00:41:58;;;;;;;16.73;13.10;;;-0.30;99.90;;;;;;5051189;28;20271;-59
2023/03/11 00:44:24;;;;;;;18.15;13.00;;;-0.30;99.90;;;;;;5044584;28;20430;-60
2023/03/11 00:46:49;;;;;;;23.48;13.70;;;-0.20;99.90;;;;;;5049254;28;20017;-59
2023/03/11 00:49:16;;;;;;;19.85;13.45;;;-0.20;99.90;;;;;;5052452;28;20039;-58
2023/03/11 00:51:42;;;;;;;17.33;12.27;;;-0.20;99.90;;;;;;5052731;28;20061;-56
2023/03/11 00:54:07;;;;;;;19.23;14.18;;;-0.20;99.90;;;;;;5043448;28;20056;-55
2023/03/11 00:56:33;;;;;;;18.90;13.10;;;-0.20;99.90;;;;;;5052115;28;20052;-56
2023/03/11 00:58:58;;;;;;;19.75;13.10;;;-0.20;99.90;;;;;;5043601;28;20100;-58
2023/03/11 01:01:24;;;;;;;18.23;12.43;;;-0.20;99.90;;;;;;5046333;28;20032;-56
2023/03/11 01:03:49;;;;;;;17.63;13.20;;;-0.20;99.90;;;;;;5046907;28;20025;-58
2023/03/11 01:06:15;;;;;;;22.02;14.55;;;-0.20;99.90;;;;;;5052000;28;20026;-59
2023/03/11 01:08:40;;;;;;;21.20;14.23;;;-0.20;99.90;;;;;;5042222;28;20108;-56
2023/03/11 01:11:07;;;;;;;18.25;12.50;;;-0.30;99.90;;;;;;5051823;28;20025;-59
2023/03/11 01:13:33;;;;;;;20.63;13.77;;;-0.20;99.90;;;;;;5043525;28;20117;-59
2023/03/11 01:15:59;;;;;;;16.05;12.80;;;-0.30;99.90;;;;;;5043484;28;20075;-55
2023/03/11 01:18:26;;;;;;;19.00;13.23;;;-0.30;99.90;;;;;;5044192;28;20087;-56
2023/03/11 01:20:52;;;;;;;18.75;13.07;;;-0.30;99.90;;;;;;5048768;28;20022;-55
2023/03/11 01:23:20;;;;;;;20.38;14.05;;;-0.20;99.90;;;;;;5051917;28;20032;-58
2023/03/11 01:25:46;;;;;;;19.08;12.38;;;-0.20;99.90;;;;;;5051379;28;20032;-58
2023/03/11 01:28:12;;;;;;;17.52;12.43;;;-0.20;99.90;;;;;;5053370;28;20028;-59
2023/03/11 01:30:39;;;;;;;18.92;12.63;;;-0.30;99.90;;;;;;5051356;28;20112;-59
2023/03/11 01:33:06;;;;;;;16.92;12.05;;;-0.30;99.90;;;;;;5048441;28;20501;-60
2023/03/11 01:35:32;;;;;;;20.65;12.52;;;-0.20;99.90;;;;;;5048578;28;20028;-57
2023/03/11 01:37:59;;;;;;;14.70;11.20;;;-0.20;99.90;;;;;;5045015;28;20049;-58
2023/03/11 01:40:34;;;;;;;19.02;12.65;;;-0.20;99.90;;;;;;5051338;28;20032;-59
2023/03/11 01:43:01;;;;;;;16.63;11.70;;;-0.30;99.90;;;;;;5043706;28;20055;-59
2023/03/11 01:45:42;;;;;;;18.25;11.88;;;-0.30;99.90;;;;;;5050603;28;20082;-54
2023/03/11 01:48:09;;;;;;;16.20;11.63;;;-0.30;99.90;;;;;;5045176;28;20045;-57
2023/03/11 01:50:41;;;;;;;13.88;11.30;;;-0.30;99.90;;;;;;5049568;28;20029;-58
2023/03/11 01:53:08;;;;;;;16.95;12.65;;;-0.30;99.90;;;;;;5050714;28;20032;-55
2023/03/11 01:55:34;;;;;;;14.93;11.68;;;-0.30;99.90;;;;;;5051004;28;20060;-59
2023/03/11 01:58:04;;;;;;;16.63;11.48;;;-0.30;99.90;;;;;;5049570;28;20043;-59
2023/03/11 02:00:30;;;;;;;15.60;12.20;;;-0.40;99.90;;;;;;5048002;28;20025;-58
2023/03/11 02:02:59;;;;;;;19.73;11.88;;;-0.40;99.90;;;;;;5048218;28;20037;-57
2023/03/11 02:05:25;;;;;;;16.30;12.20;;;-0.50;99.90;;;;;;5049203;28;20033;-57
2023/03/11 02:07:52;;;;;;;16.92;11.68;;;-0.50;99.90;;;;;;5055722;28;20021;-59
2023/03/11 02:10:18;;;;;;;18.15;12.18;;;-0.50;99.90;;;;;;5050503;28;20116;-56
2023/03/11 02:12:45;;;;;;;16.75;11.50;;;-0.60;99.90;;;;;;5050836;28;20515;-55
2023/03/11 02:15:12;;;;;;;15.65;11.15;;;-0.60;99.90;;;;;;5050356;28;20044;-58
2023/03/11 02:17:39;;;;;;;14.88;11.43;;;-0.70;99.90;;;;;;5049026;28;20033;-57
2023/03/11 02:20:32;;;;;;;15.80;11.07;;;-0.70;99.90;;;;;;5050362;28;20435;-58
2023/03/11 02:23:00;;;;;;;15.80;11.55;;;-0.70;99.90;;;;;;5043323;28;20029;-58
2023/03/11 02:25:43;;;;;;;14.52;10.48;;;-0.80;99.90;;;;;;5050504;28;20056;-59
2023/03/11 02:28:10;;;;;;;13.23;10.30;;;-0.70;99.90;;;;;;5044998;28;20032;-59
2023/03/11 02:30:40;;;;;;;15.10;10.75;;;-0.70;99.90;;;;;;5048728;28;20029;-58
2023/03/11 02:33:06;;;;;;;15.90;10.88;;;-0.70;99.90;;;;;;5050391;28;20036;-55
2023/03/11 02:35:32;;;;;;;15.98;11.20;;;-0.70;99.90;;;;;;5050359;28;20108;-59
2023/03/11 02:37:57;;;;;;;16.58;11.82;;;-0.70;99.90;;;;;;5048876;28;20111;-57
2023/03/11 02:40:23;;;;;;;17.35;11.95;;;-0.70;99.90;;;;;;5050473;28;20037;-60
2023/03/11 02:42:51;;;;;;;15.38;11.77;;;-0.70;99.90;;;;;;5049784;28;20025;-58
2023/03/11 02:45:19;;;;;;;16.25;11.30;;;-0.70;99.90;;;;;;5049582;28;20120;-57
2023/03/11 02:47:45;;;;;;;14.43;11.00;;;-0.70;99.90;;;;;;5049766;28;20029;-57
2023/03/11 02:50:14;;;;;;;12.90;10.23;;;-0.70;99.90;;;;;;5048976;28;20116;-55
2023/03/11 02:52:39;;;;;;;14.73;10.30;;;-0.70;99.90;;;;;;5041618;28;20183;-56
2023/03/11 02:55:06;;;;;;;14.30;9.82;;;-0.70;99.90;;;;;;5049611;28;20108;-57
2023/03/11 02:57:32;;;;;;;15.20;10.13;;;-0.70;99.90;;;;;;5048672;28;20025;-57
2023/03/11 02:59:58;;;;;;;13.43;9.35;;;-0.80;99.90;;;;;;5042242;28;20553;-57
2023/03/11 03:02:24;;;;;;;14.30;10.07;;;-0.80;99.90;;;;;;5046017;28;20025;-55
2023/03/11 03:04:50;;;;;;;13.27;9.93;;;-0.80;99.90;;;;;;5048596;28;20035;-60
2023/03/11 03:07:15;;;;;;;15.52;9.73;;;-0.80;99.90;;;;;;5049447;28;20060;-57
2023/03/11 03:09:41;;;;;;;13.27;9.48;;;-0.80;99.90;;;;;;5041185;28;20108;-54
2023/03/11 03:12:06;;;;;;;13.23;9.52;;;-0.80;99.90;;;;;;5048563;28;20028;-57
2023/03/11 03:14:33;;;;;;;13.45;8.85;;;-0.80;99.90;;;;;;5047929;28;20083;-57
2023/03/11 03:16:59;;;;;;;15.15;9.30;;;-0.80;99.90;;;;;;5037503;28;20021;-55
2023/03/11 03:19:24;;;;;;;13.20;8.55;;;-0.90;99.90;;;;;;5049012;28;20029;-60
2023/03/11 03:21:50;;;;;;;13.45;8.63;;;-0.90;99.90;;;;;;5047796;28;20025;-55
2023/03/11 03:24:16;;;;;;;12.15;9.38;;;-0.90;99.90;;;;;;5049526;28;20029;-57
2023/03/11 03:26:41;;;;;;;11.30;8.57;;;-0.90;99.90;;;;;;5047736;28;20029;-58
2023/03/11 03:29:07;;;;;;;14.30;8.63;;;-0.90;99.90;;;;;;5046686;28;20044;-55
2023/03/11 03:31:32;;;;;;;11.90;8.77;;;-0.90;99.90;;;;;;5049395;28;20094;-59
2023/03/11 03:33:58;;;;;;;11.15;8.35;;;-0.90;99.90;;;;;;5049296;28;20491;-60
2023/03/11 03:36:24;;;;;;;14.40;9.00;;;-0.80;99.90;;;;;;5048563;28;20499;-56
2023/03/11 03:38:56;;;;;;;12.00;9.45;;;-0.80;99.90;;;;;;5049640;28;20021;-57
2023/03/11 03:41:22;;;;;;;14.07;9.07;;;-0.90;99.90;;;;;;5045741;28;20403;-55
2023/03/11 03:43:48;;;;;;;12.27;8.82;;;-0.90;99.90;;;;;;5047769;28;20033;-59
2023/03/11 03:46:14;;;;;;;13.18;9.00;;;-0.90;99.90;;;;;;5048942;28;20475;-58
2023/03/11 03:48:40;;;;;;;11.02;8.45;;;-0.90;99.90;;;;;;5048852;28;20079;-59
2023/03/11 03:51:08;;;;;;;13.68;9.40;;;-0.90;99.90;;;;;;5048388;28;20057;-56
2023/03/11 03:53:35;;;;;;;10.48;8.68;;;-0.90;99.90;;;;;;5047707;28;20067;-56
2023/03/11 03:56:06;;;;;;;13.85;10.27;;;-0.80;99.90;;;;;;5043460;28;20024;-55
2023/03/11 03:58:31;;;;;;;14.30;10.10;;;-0.80;99.90;;;;;;5046492;28;20078;-59
2023/03/11 04:00:58;;;;;;;13.85;9.45;;;-0.80;99.90;;;;;;5043737;28;20454;-54
2023/03/11 04:03:25;;;;;;;14.52;9.65;;;-0.80;99.90;;;;;;5045072;28;20041;-59
2023/03/11 04:05:51;;;;;;;11.98;9.20;;;-0.90;99.90;;;;;;5043163;28;20510;-57
2023/03/11 04:08:17;;;;;;;11.98;9.02;;;-0.80;99.90;;;;;;5048356;28;20037;-55
2023/03/11 04:10:42;;;;;;;14.68;9.38;;;-0.80;99.90;;;;;;5048254;28;20040;-58
2023/03/11 04:13:08;;;;;;;12.07;8.98;;;-0.80;99.90;;;;;;5043085;28;20025;-58
2023/03/11 04:15:36;;;;;;;12.88;8.88;;;-0.80;99.90;;;;;;5048888;28;20483;-58
2023/03/11 04:18:01;;;;;;;14.63;8.80;;;-0.80;99.90;;;;;;5048643;28;20068;-58
2023/03/11 04:20:27;;;;;;;14.27;9.27;;;-0.80;99.90;;;;;;5048256;28;20087;-59
2023/03/11 04:22:52;;;;;;;12.15;8.93;;;-0.80;99.90;;;;;;5047578;28;20071;-59
2023/03/11 04:25:18;;;;;;;13.50;8.50;;;-0.90;99.90;;;;;;5048424;28;20040;-56
2023/03/11 04:27:44;;;;;;;10.75;8.00;;;-1.00;99.90;;;;;;5047031;28;20329;-56
2023/03/11 04:30:11;;;;;;;10.73;8.07;;;-1.00;99.90;;;;;;5048059;28;20350;-56
2023/03/11 04:32:37;;;;;;;11.15;7.80;;;-1.00;99.90;;;;;;5046744;28;20029;-59
2023/03/11 04:35:04;;;;;;;11.80;9.15;;;-1.10;99.90;;;;;;5041377;28;20048;-57
2023/03/11 04:37:30;;;;;;;10.55;7.78;;;-1.10;99.90;;;;;;5046292;28;20033;-57
2023/03/11 04:39:55;;;;;;;9.70;7.78;;;-1.20;99.90;;;;;;5048990;28;20035;-59
2023/03/11 04:42:21;;;;;;;11.65;8.40;;;-1.20;99.90;;;;;;5041762;28;20496;-60
2023/03/11 04:44:46;;;;;;;11.02;7.45;;;-1.20;99.90;;;;;;5048411;28;20029;-59
2023/03/11 04:47:12;;;;;;;12.50;8.05;;;-1.30;99.90;;;;;;5041968;28;20083;-59
2023/03/11 04:49:37;;;;;;;10.10;7.90;;;-1.30;99.90;;;;;;5044396;28;20048;-60
2023/03/11 04:52:03;;;;;;;9.20;7.60;;;-1.40;99.90;;;;;;5046943;28;20387;-58
2023/03/11 04:54:29;;;;;;;9.30;7.22;;;-1.40;99.90;;;;;;5043747;28;20032;-59
2023/03/11 04:56:54;;;;;;;8.88;7.20;;;-1.40;99.90;;;;;;5045886;28;20248;-55
2023/03/11 04:59:20;;;;;;;9.85;7.65;;;-1.40;99.90;;;;;;5047203;28;20025;-60
2023/03/11 05:01:45;;;;;;;10.82;8.07;;;-1.50;99.90;;;;;;5039922;28;20029;-57
2023/03/11 05:04:11;;;;;;;10.77;7.30;;;-1.50;99.90;;;;;;5047817;28;20423;-57
2023/03/11 05:06:37;;;;;;;10.38;6.97;;;-1.50;99.90;;;;;;5047946;28;20025;-60
2023/03/11 05:09:03;;;;;;;11.10;8.13;;;-1.60;99.90;;;;;;5046585;28;20021;-58
2023/03/11 05:11:29;;;;;;;10.02;8.02;;;-1.70;99.90;;;;;;5039451;28;20544;-57
2023/03/11 05:13:55;;;;;;;10.70;8.07;;;-1.70;99.90;;;;;;5045290;28;20040;-57
2023/03/11 05:16:21;;;;;;;10.15;7.93;;;-1.70;99.90;;;;;;5048125;28;20487;-55
2023/03/11 05:18:47;;;;;;;13.07;8.40;;;-1.70;99.90;;;;;;5047559;28;20446;-58
2023/03/11 05:21:12;;;;;;;15.55;8.68;;;-1.80;99.90;;;;;;5047876;28;20025;-58
2023/03/11 05:23:38;;;;;;;12.90;7.93;;;-1.80;99.90;;;;;;5048156;28;20040;-58
2023/03/11 05:26:04;;;;;;;11.65;8.52;;;-1.80;99.90;;;;;;5050040;28;20224;-58
2023/03/11 05:28:30;;;;;;;13.48;8.43;;;-1.80;99.90;;;;;;5051943;28;20055;-57
2023/03/11 05:30:55;;;;;;;11.23;7.82;;;-1.80;99.90;;;;;;5052417;28;20017;-59
2023/03/11 05:33:21;;;;;;;10.65;7.55;;;-1.90;99.90;;;;;;5051634;28;20057;-57
2023/03/11 05:35:46;;;;;;;13.02;8.77;;;-1.90;99.90;;;;;;5050925;28;20020;-59
2023/03/11 05:38:12;;;;;;;13.48;8.85;;;-1.90;99.90;;;;;;5051329;28;20467;-54
2023/03/11 05:40:38;;;;;;;12.20;8.05;;;-1.90;99.90;;;;;;5051138;28;20491;-56
2023/03/11 05:43:03;;;;;;;12.40;8.38;;;-1.90;99.90;;;;;;5051626;28;20032;-58
2023/03/11 05:45:29;;;;;;;12.45;7.95;;;-1.90;99.90;;;;;;5050731;28;20556;-57
2023/03/11 05:47:55;;;;;;;13.23;8.20;;;-1.90;99.90;;;;;;5051240;28;20387;-60
2023/03/11 05:50:20;;;;;;;11.75;8.27;;;-1.90;99.90;;;;;;5050602;28;20029;-60
2023/03/11 05:52:46;;;;;;;10.73;8.10;;;-2.00;99.90;;;;;;5044151;28;20021;-57
2023/03/11 05:55:11;;;;;;;11.93;8.55;;;-2.00;99.90;;;;;;5050779;28;20021;-57
2023/03/11 05:57:38;;;;;;;11.07;6.95;;;-2.00;99.90;;;;;;5048459;28;20086;-59
2023/03/11 06:00:10;;;;;;;10.30;6.90;;;-2.00;99.90;;;;;;5050988;28;20021;-59
2023/03/11 06:02:39;;;;;;;11.88;8.18;;;-2.00;99.90;;;;;;5050950;28;20024;-57
2023/03/11 06:05:06;;;;;;;12.60;7.85;;;-2.00;99.90;;;;;;5050912;28;20091;-58
2023/03/11 06:07:33;;;;;;;11.07;7.13;;;-2.10;99.90;;;;;;5032398;28;20407;-57
2023/03/11 06:09:59;;;;;;;9.80;7.70;;;-2.10;99.90;;;;;;5038790;28;20558;-57
2023/03/11 06:12:24;;;;;;;15.10;8.43;;;-2.10;99.90;;;;;;5050891;28;20119;-59
2023/03/11 06:14:52;;;;;;;11.73;7.75;;;-2.10;99.90;;;;;;5050322;28;20049;-56
2023/03/11 06:17:17;;;;;;;9.95;7.43;;;-2.10;99.90;;;;;;5050273;28;20110;-59
2023/03/11 06:19:43;;;;;;;9.77;6.70;;;-2.20;99.90;;;;;;5050426;28;20495;-56
2023/03/11 06:22:08;;;;;;;11.10;7.28;;;-2.10;99.90;;;;;;5050545;28;20422;-55
2023/03/11 06:24:35;;;;;;;9.82;7.22;;;-2.10;99.90;;;;;;5048986;28;20025;-60
2023/03/11 06:27:00;;;;;;;8.75;6.60;;;-2.10;99.90;;;;;;5050176;28;20104;-56
2023/03/11 06:29:27;;;;;;;10.20;7.22;;;-2.00;99.90;;;;;;5049876;28;20104;-59
2023/03/11 06:31:53;;;;;;;11.02;7.18;;;-2.00;99.90;;;;;;5048711;28;20029;-55
2023/03/11 06:34:19;;;;;;;10.60;6.82;;;-2.10;99.90;;;;;;5051877;28;20040;-58
2023/03/11 06:36:44;;;;;;;10.65;7.25;;;-2.10;99.90;;;;;;5046678;28;20028;-55
2023/03/11 06:39:14;;;;;;;8.63;7.05;;;-2.10;99.90;;;;;;5042189;28;20025;-57
2023/03/11 06:41:40;;;;;;;11.43;7.95;;;-2.10;99.90;;;;;;5050307;28;20025;-56
2023/03/11 06:44:06;;;;;;;13.00;7.28;;;-2.10;99.90;;;;;;5050009;28;20092;-55
2023/03/11 06:46:32;;;;;;;9.98;7.20;;;-2.00;99.90;;;;;;5050371;28;20119;-58
2023/03/11 06:48:57;;;;;;;10.30;6.53;;;-2.00;99.90;;;;;;5049493;28;20112;-60
2023/03/11 06:51:23;;;;;;;10.18;6.45;;;-2.10;99.90;;;;;;5049953;28;20050;-58
2023/03/11 06:53:51;;;;;;;9.52;6.88;;;-2.10;99.90;;;;;;5049851;28;20017;-60
2023/03/11 06:56:17;;;;;;;9.32;6.72;;;-2.00;99.90;;;;;;5047778;28;20100;-58
2023/03/11 06:58:43;;;;;;;10.55;7.63;;;-1.90;99.90;;;;;;5048719;28;20104;-56
2023/03/11 07:01:14;;;;;;;11.55;8.40;;;-1.90;99.90;;;;;;5048998;28;20363;-56
2023/03/11 07:03:40;;;;;;;10.35;7.95;;;-1.90;99.90;;;;;;5049608;28;20053;-56
2023/03/11 07:06:11;;;;;;;11.02;7.63;;;-1.80;99.90;;;;;;5049609;28;20447;-54
2023/03/11 07:08:37;;;;;;;9.40;7.18;;;-1.80;99.90;;;;;;5050012;28;20033;-56
2023/03/11 07:11:11;;;;;;;12.23;7.43;;;-1.80;99.90;;;;;;5045419;28;20025;-52
2023/03/11 07:13:36;;;;;;;12.13;7.10;;;-1.80;99.90;;;;;;5049953;28;20111;-56
2023/03/11 07:16:14;;;;;;;9.50;6.95;;;-1.70;99.90;;;;;;5043440;28;20112;-57
2023/03/11 07:18:40;;;;;;;11.82;7.85;;;-1.70;99.90;;;;;;5047144;28;20027;-57
2023/03/11 07:21:07;;;;;;;10.48;6.53;;;-1.60;99.90;;;;;;5043970;28;20379;-56
2023/03/11 07:23:34;;;;;;;12.07;7.53;;;-1.60;99.90;;;;;;5049416;28;20029;-57
2023/03/11 07:25:59;;;;;;;11.45;7.85;;;-1.50;99.90;;;;;;5044625;28;20297;-58
2023/03/11 07:28:26;;;;;;;11.13;7.57;;;-1.50;99.90;;;;;;5047430;28;20033;-56
2023/03/11 07:30:53;;;;;;;11.75;7.45;;;-1.40;99.90;;;;;;5049105;28;20036;-58
2023/03/11 07:33:21;;;;;;;11.35;7.43;;;-1.40;99.90;;;;;;5049431;28;20029;-55
2023/03/11 07:35:48;;;;;;;10.25;7.20;;;-1.40;99.90;;;;;;5048059;28;20490;-58
2023/03/11 07:38:14;;;;;;;11.57;7.97;;;-1.30;99.90;;;;;;5049409;28;20021;-53
2023/03/11 07:40:40;;;;;;;9.80;7.07;;;-1.30;99.90;;;;;;5049199;28;20044;-56
2023/03/11 07:43:06;;;;;;;11.57;7.50;;;-1.30;99.90;;;;;;5050054;28;20049;-57
2023/03/11 07:45:31;;;;;;;11.88;7.22;;;-1.20;99.90;;;;;;5048777;28;20487;-54
2023/03/11 07:47:57;;;;;;;12.25;7.43;;;-1.10;99.90;;;;;;5057977;28;20029;-58
2023/03/11 07:50:22;;;;;;;17.10;7.72;;;-1.00;99.90;;;;;;5052666;28;20021;-56
2023/03/11 07:52:48;;;;;;;11.00;7.38;;;-1.00;99.90;;;;;;5048820;28;20043;-58
2023/03/11 07:55:14;;;;;;;11.02;7.38;;;-1.00;99.90;;;;;;5046291;28;20025;-59
2023/03/11 07:57:41;;;;;;;11.27;6.95;;;-0.90;99.90;;;;;;5047128;28;20052;-59
2023/03/11 08:00:08;;;;;;;10.40;6.70;;;-0.90;99.90;;;;;;5042065;28;20025;-61
2023/03/11 08:02:33;;;;;;;8.40;6.32;;;-0.80;99.90;;;;;;5049050;28;20398;-60
2023/03/11 08:04:59;;;;;;;11.23;7.88;;;-0.70;99.90;;;;;;5049000;28;20021;-61
2023/03/11 08:07:24;;;;;;;10.07;6.68;;;-0.70;99.90;;;;;;5048421;28;20052;-61
2023/03/11 08:09:50;;;;;;;11.55;7.28;;;-0.60;99.90;;;;;;5047673;28;20055;-59
2023/03/11 08:12:15;;;;;;;12.02;7.32;;;-0.40;99.90;;;;;;5049115;28;20013;-59
2023/03/11 08:14:42;;;;;;;11.70;6.57;;;-0.20;99.90;;;;;;5048420;28;20404;-60
2023/03/11 08:17:08;;;;;;;10.38;6.60;;;-0.10;99.90;;;;;;5049263;28;20044;-61
2023/03/11 08:19:34;;;;;;;10.32;6.85;;;0.10;99.90;;;;;;5048801;28;20399;-60
2023/03/11 08:22:02;;;;;;;7.60;5.50;;;0.30;99.90;;;;;;5049128;28;20025;-60
2023/03/11 08:24:28;;;;;;;10.25;6.38;;;0.50;99.90;;;;;;5048796;28;20025;-58
2023/03/11 08:26:55;;;;;;;8.88;6.20;;;0.80;99.90;;;;;;5049107;28;20383;-60
2023/03/11 08:29:22;;;;;;;7.63;6.22;;;1.00;99.90;;;;;;5048626;28;20029;-56
2023/03/11 08:31:47;;;;;;;11.95;5.68;;;1.30;99.90;;;;;;5048683;28;20740;-59
2023/03/11 08:34:13;;;;;;;7.28;5.28;;;1.50;99.90;;;;;;5048513;28;20025;-59
2023/03/11 08:36:39;;;;;;;6.72;5.55;;;1.70;99.90;;;;;;5047547;28;20036;-58
2023/03/11 08:39:05;;;;;;;6.55;4.72;;;1.90;99.90;;;;;;5048312;28;20029;-60
2023/03/11 08:41:30;;;;;;;8.07;4.85;;;2.10;99.90;;;;;;5048403;28;20036;-60
2023/03/11 08:43:56;;;;;;;7.28;4.03;;;2.20;99.90;;;;;;5048500;28;20021;-58
2023/03/11 08:46:30;;;;;;;6.68;4.03;;;2.20;99.90;;;;;;5047707;28;20390;-58
2023/03/11 08:48:57;;;;;;;7.00;4.72;;;2.40;99.90;;;;;;5043034;28;20059;-56
2023/03/11 08:51:23;;;;;;;7.07;4.20;;;2.60;99.90;;;;;;5047384;28;20037;-57
2023/03/11 08:53:49;;;;;;;8.15;4.50;;;2.70;99.90;;;;;;5048215;28;20487;-57
2023/03/11 08:56:15;;;;;;;6.28;4.90;;;2.90;99.90;;;;;;5044260;28;20399;-58
2023/03/11 08:58:41;;;;;;;6.40;4.53;;;3.20;99.90;;;;;;5047967;28;20024;-58
2023/03/11 09:01:08;;;;;;;6.88;5.20;;;3.40;99.90;;;;;;5052695;28;20025;-54
2023/03/11 09:03:35;;;;;;;5.20;4.20;;;3.50;99.90;;;;;;5050715;28;20033;-54
2023/03/11 09:06:02;;;;;;;5.22;4.20;;;3.60;99.90;;;;;;5051920;28;20032;-57
2023/03/11 09:08:28;;;;;;;6.65;4.97;;;3.70;99.90;;;;;;5043562;28;20051;-57
2023/03/11 09:10:54;;;;;;;5.80;4.30;;;3.80;99.90;;;;;;5052008;28;20025;-58
2023/03/11 09:13:20;;;;;;;6.53;3.70;;;3.90;99.90;;;;;;5052085;28;20483;-57
2023/03/11 09:15:48;;;;;;;5.65;4.07;;;3.90;99.90;;;;;;5052271;28;20043;-56
2023/03/11 09:18:14;;;;;;;4.18;3.58;;;4.00;99.90;;;;;;5052371;28;20021;-59
2023/03/11 09:20:41;;;;;;;7.18;3.47;;;4.00;99.90;;;;;;5051927;28;20036;-60
2023/03/11 09:23:08;;;;;;;4.43;3.67;;;4.00;99.90;;;;;;5051922;28;20891;-58
2023/03/11 09:25:34;;;;;;;4.65;3.40;;;4.10;99.90;;;;;;5049737;28;20043;-59
2023/03/11 09:27:59;;;;;;;6.47;3.83;;;4.10;99.90;;;;;;5051991;28;20483;-58
2023/03/11 09:30:25;;;;;;;4.05;3.17;;;4.10;99.90;;;;;;5051216;28;20033;-59
2023/03/11 09:32:51;;;;;;;4.57;3.20;;;4.10;99.90;;;;;;5051757;28;20044;-58
2023/03/11 09:35:17;;;;;;;5.35;3.10;;;4.10;99.90;;;;;;5051553;28;20483;-57
2023/03/11 09:37:42;;;;;;;5.93;3.47;;;4.20;99.90;;;;;;5051829;28;20032;-57
2023/03/11 09:40:14;;;;;;;3.47;3.03;;;4.10;99.90;;;;;;5051920;28;20021;-59
2023/03/11 09:42:58;;;;;;;4.57;2.90;;;4.10;99.90;;;;;;5051650;28;20017;-57
2023/03/11 09:45:33;;;;;;;5.28;2.97;;;4.00;99.90;;;;;;5051371;28;20483;-59
2023/03/11 09:48:23;;;;;;;5.75;2.90;;;4.00;99.90;;;;;;5043380;28;20032;-57
2023/03/11 09:50:54;;;;;;;3.00;2.47;;;4.10;99.90;;;;;;5042880;28;20120;-57
2023/03/11 09:53:55;;;;;;;6.95;3.88;;;4.10;99.90;;;;;;5050413;28;20495;-56
2023/03/11 09:56:21;;;;;;;4.30;2.92;;;4.00;99.90;;;;;;5037450;28;20121;-59
2023/03/11 09:58:54;;;;;;;4.18;3.15;;;4.00;99.90;;;;;;5051330;28;20053;-58
2023/03/11 10:01:25;;;;;;;3.42;2.45;;;4.10;99.90;;;;;;5053042;28;20025;-58
2023/03/11 10:03:54;;;;;;;5.30;3.20;;;4.00;99.90;;;;;;5043520;28;20123;-58
2023/03/11 10:06:25;;;;;;;7.07;2.95;;;4.00;99.90;;;;;;5051030;28;20029;-54
2023/03/11 10:09:16;;;;;;;4.00;2.67;;;3.90;99.90;;;;;;5038745;28;20075;-59
2023/03/11 10:11:54;;;;;;;6.20;2.42;;;3.80;99.90;;;;;;5048662;28;20032;-60
2023/03/11 10:14:41;;;;;;;4.63;2.38;;;3.90;99.90;;;;;;5048702;28;20021;-59
2023/03/11 10:17:16;;;;;;;3.63;1.90;;;3.90;99.90;;;;;;5051190;28;20028;-58
2023/03/11 10:20:04;;;;;;;3.22;2.13;;;3.80;99.90;;;;;;5050763;28;20391;-57
2023/03/11 10:22:52;;;;;;;5.50;2.50;;;3.90;99.90;;;;;;5050901;28;20503;-60
2023/03/11 10:25:41;;;;;;;3.80;2.53;;;4.00;99.90;;;;;;5046631;28;20426;-61
2023/03/11 10:28:14;;;;;;;6.43;2.47;;;4.00;99.90;;;;;;5046102;28;20017;-60
2023/03/11 10:30:51;;;;;;;5.93;2.97;;;3.90;99.90;;;;;;5048383;28;20078;-60
2023/03/11 10:33:43;;;;;;;2.70;2.13;;;4.00;99.90;;;;;;5050855;28;20009;-61
2023/03/11 10:36:22;;;;;;;3.20;2.28;;;4.00;99.90;;;;;;5049863;28;20025;-59
2023/03/11 10:38:51;;;;;;;5.15;2.20;;;3.90;99.90;;;;;;5049969;28;20429;-59
2023/03/11 10:41:34;;;;;;;2.58;2.00;;;3.90;99.90;;;;;;5050340;28;20487;-59
2023/03/11 10:44:19;;;;;;;3.78;2.40;;;3.90;99.90;;;;;;5045958;28;20029;-60
2023/03/11 10:46:44;;;;;;;3.35;2.22;;;4.00;99.90;;;;;;5043045;28;20025;-60
2023/03/11 10:49:14;;;;;;;3.63;2.30;;;4.00;99.90;;;;;;5048737;28;20052;-60
2023/03/11 10:51:42;;;;;;;4.43;2.38;;;4.00;99.90;;;;;;5050128;28;20490;-60
2023/03/11 10:54:38;;;;;;;6.13;2.78;;;4.00;99.90;;;;;;5049646;28;20029;-60
2023/03/11 10:57:27;;;;;;;2.90;2.20;;;4.00;99.90;;;;;;5043423;28;20427;-59
2023/03/11 10:59:54;;;;;;;3.95;2.35;;;4.00;99.90;;;;;;5048720;28;20108;-58
2023/03/11 11:02:40;;;;;;;6.28;2.70;;;4.10;99.90;;;;;;5049725;28;20021;-59
2023/03/11 11:05:19;;;;;;;4.45;2.10;;;4.00;99.90;;;;;;5043297;28;20620;-58
2023/03/11 11:07:46;;;;;;;3.17;2.25;;;4.00;99.90;;;;;;5049316;28;20029;-58
2023/03/11 11:10:26;;;;;;;2.50;2.10;;;4.10;99.90;;;;;;5049691;28;20510;-59
2023/03/11 11:12:54;;;;;;;5.88;2.53;;;4.10;99.90;;;;;;5031809;28;20419;-58
2023/03/11 11:15:26;;;;;;;4.70;2.78;;;4.10;99.90;;;;;;5049781;28;20028;-59
2023/03/11 11:17:54;;;;;;;5.40;2.40;;;4.10;99.90;;;;;;5044853;28;20101;-58
2023/03/11 11:20:22;;;;;;;4.13;2.58;;;4.00;99.90;;;;;;5049567;28;20372;-59
2023/03/11 11:22:57;;;;;;;5.03;2.53;;;4.00;99.90;;;;;;5048245;28;20479;-59
2023/03/11 11:25:32;;;;;;;5.25;2.55;;;4.00;99.90;;;;;;5045696;28;20033;-57
2023/03/11 11:28:13;;;;;;;7.53;2.87;;;4.10;99.90;;;;;;5043804;28;20056;-59
2023/03/11 11:31:04;;;;;;;7.30;2.63;;;4.10;99.90;;;;;;5049552;28;20283;-57
2023/03/11 11:33:49;;;;;;;4.65;2.10;;;4.10;99.90;;;;;;5049270;28;20074;-59
2023/03/11 11:36:16;;;;;;;4.57;2.42;;;4.10;99.90;;;;;;5049263;28;20052;-59
2023/03/11 11:38:42;;;;;;;5.53;2.42;;;4.10;99.90;;;;;;5047336;28;20037;-59
2023/03/11 11:41:15;;;;;;;4.55;2.25;;;4.20;99.90;;;;;;5047797;28;20093;-60
2023/03/11 11:43:49;;;;;;;6.00;2.75;;;4.20;99.90;;;;;;5044507;28;20040;-60
2023/03/11 11:46:37;;;;;;;8.57;2.95;;;4.30;99.90;;;;;;5044096;28;20059;-58
2023/03/11 11:49:07;;;;;;;3.75;2.10;;;4.30;99.90;;;;;;5044754;28;20041;-60
2023/03/11 11:51:39;;;;;;;4.03;1.80;;;4.30;99.90;;;;;;5049119;28;20040;-60
2023/03/11 11:54:23;;;;;;;4.72;2.22;;;4.40;99.90;;;;;;5049198;28;20571;-59
2023/03/11 11:56:49;;;;;;;5.40;2.53;;;4.40;99.90;;;;;;5045531;28;20112;-59
2023/03/11 11:59:23;;;;;;;5.03;2.17;;;4.40;99.90;;;;;;5044364;28;20096;-60
2023/03/11 12:02:04;;;;;;;3.30;1.27;;;4.40;99.90;;;;;;5048570;28;20037;-59
2023/03/11 12:04:51;;;;;;;4.82;1.73;;;4.30;99.90;;;;;;5048752;28;20052;-60
2023/03/11 12:07:17;;;;;;;;;;;4.40;99.90;;;;;;5049257;28;20345;-59
2023/03/11 12:10:06;;;;;;;2.47;1.52;;;4.40;99.90;;;;;;5048578;28;19905;-59
2023/03/11 12:12:51;;;;;;;3.33;1.15;;;4.50;99.90;;;;;;5008790;28;20048;-59
2023/03/11 12:15:23;;;;;;;9.95;4.70;;;4.30;99.90;;;;;;5044100;28;20025;-59
2023/03/11 12:17:53;;;;;;;4.82;3.03;;;4.30;99.90;;;;;;5048885;28;20069;-60
2023/03/11 12:20:31;;;;;;;4.28;2.33;;;4.30;99.90;;;;;;5048461;28;20040;-59
2023/03/11 12:23:09;;;;;;;3.47;1.67;;;4.20;99.90;;;;;;5046628;28;20395;-59
2023/03/11 12:25:53;;;;;;;4.72;2.55;;;4.10;99.90;;;;;;5049121;28;20108;-60
2023/03/11 12:28:22;;;;;;;6.22;1.92;;;4.10;99.90;;;;;;5048798;28;20025;-59
2023/03/11 12:30:52;;;;;;;5.38;3.83;;;4.10;99.90;;;;;;5047796;28;20405;-59
2023/03/11 12:33:39;;;;;;;4.78;1.92;;;4.20;99.90;;;;;;5048911;28;20017;-60
2023/03/11 12:36:06;;;;;;;4.45;0.98;;;4.40;99.90;;;;;;5045449;28;20037;-60
2023/03/11 12:38:45;;;;;;;2.20;1.17;;;4.50;99.90;;;;;;5052754;28;20036;-59
2023/03/11 12:41:13;;;;;;;3.03;1.10;;;4.80;99.90;;;;;;5047485;28;20025;-59
2023/03/11 12:43:41;;;;;;;3.28;1.95;;;5.00;99.90;;;;;;5049445;28;20033;-59
2023/03/11 12:46:12;;;;;;;3.53;1.85;;;5.10;99.90;;;;;;5052395;28;20553;-59
2023/03/11 12:49:03;;;;;;;6.53;4.97;;;5.20;99.90;;;;;;5050767;28;20033;-60
2023/03/11 12:51:38;;;;;;;8.32;1.92;;;5.40;99.90;;;;;;5050181;28;20112;-60